createdAt,value
2018-06-29T00:02:08.445Z,20.80
2018-06-29T00:04:37.498Z,20.80
2018-06-29T00:07:06.662Z,20.70
2018-06-29T00:09:35.674Z,20.70
2018-06-29T00:12:09.309Z,20.70
2018-06-29T00:14:38.342Z,20.70
2018-06-29T00:17:07.338Z,20.70
2018-06-29T00:19:36.373Z,20.70
2018-06-29T00:22:05.445Z,20.60
2018-06-29T00:24:35.788Z,20.60
2018-06-29T00:29:37.201Z,20.50
2018-06-29T00:32:07.436Z,20.50
2018-06-29T00:34:36.781Z,20.50
2018-06-29T00:37:07.828Z,20.50
2018-06-29T00:39:36.902Z,20.50
2018-06-29T00:42:07.458Z,20.40
2018-06-29T00:44:36.436Z,20.40
2018-06-29T00:47:05.466Z,20.30
2018-06-29T00:49:34.478Z,20.30
2018-06-29T00:52:03.454Z,20.20
2018-06-29T00:54:32.481Z,20.10
2018-06-29T00:57:01.446Z,20.10
2018-06-29T00:59:30.445Z,20.00
2018-06-29T01:01:59.429Z,20.00
2018-06-29T01:04:28.442Z,20.00
2018-06-29T01:06:57.397Z,20.10
2018-06-29T01:09:26.385Z,20.10
2018-06-29T01:11:55.388Z,20.00
2018-06-29T01:14:24.358Z,20.00
2018-06-29T01:16:53.338Z,19.80
2018-06-29T01:19:22.357Z,19.70
2018-06-29T01:21:51.385Z,19.70
2018-06-29T01:24:20.385Z,19.60
2018-06-29T01:26:49.357Z,19.60
2018-06-29T01:29:18.340Z,19.60
2018-06-29T01:31:47.379Z,19.50
2018-06-29T01:34:16.362Z,19.50
2018-06-29T01:36:45.450Z,19.40
2018-06-29T01:39:14.494Z,19.40
2018-06-29T01:41:43.511Z,19.40
2018-06-29T01:44:12.502Z,19.20
2018-06-29T01:46:41.490Z,19.30
2018-06-29T01:49:10.503Z,19.20
2018-06-29T01:51:39.478Z,19.20
2018-06-29T01:54:08.767Z,19.30
2018-06-29T01:56:37.781Z,19.20
2018-06-29T01:59:06.789Z,19.30
2018-06-29T02:01:35.782Z,19.30
2018-06-29T02:04:04.774Z,19.30
2018-06-29T02:06:33.751Z,19.30
2018-06-29T02:09:02.913Z,19.30
2018-06-29T02:11:31.866Z,19.20
2018-06-29T02:14:00.936Z,19.20
2018-06-29T02:16:29.891Z,19.10
2018-06-29T02:18:58.913Z,19.20
2018-06-29T02:21:29.519Z,19.20
2018-06-29T02:26:34.050Z,19.00
2018-06-29T02:29:03.154Z,18.90
2018-06-29T02:31:32.142Z,18.80
2018-06-29T02:34:01.121Z,18.90
2018-06-29T02:36:30.221Z,18.90
2018-06-29T02:38:59.185Z,18.90
2018-06-29T02:41:28.161Z,18.90
2018-06-29T02:43:57.277Z,18.80
2018-06-29T02:46:26.269Z,18.70
2018-06-29T02:48:55.247Z,18.70
2018-06-29T03:01:26.789Z,18.50
2018-06-29T03:03:55.742Z,18.50
2018-06-29T03:06:24.786Z,18.60
2018-06-29T03:08:53.763Z,18.60
2018-06-29T03:11:22.746Z,18.60
2018-06-29T03:13:52.204Z,18.50
2018-06-29T03:16:21.186Z,18.50
2018-06-29T03:21:18.676Z,18.60
2018-06-29T03:23:47.637Z,18.50
2018-06-29T03:26:16.618Z,18.40
2018-06-29T03:28:45.584Z,18.30
2018-06-29T03:31:14.545Z,18.30
2018-06-29T03:33:43.661Z,18.30
2018-06-29T03:36:12.614Z,18.30
2018-06-29T03:38:41.617Z,18.30
2018-06-29T03:41:10.565Z,18.30
2018-06-29T03:43:39.536Z,18.40
2018-06-29T03:46:08.541Z,18.30
2018-06-29T03:48:37.530Z,18.40
2018-06-29T03:51:09.186Z,18.40
2018-06-29T03:53:38.250Z,18.50
2018-06-29T03:56:07.265Z,18.50
2018-06-29T03:58:36.265Z,18.50
2018-06-29T04:01:05.309Z,18.60
2018-06-29T04:03:34.262Z,18.60
2018-06-29T04:06:03.273Z,18.60
2018-06-29T04:08:32.238Z,18.60
2018-06-29T04:11:01.234Z,18.60
2018-06-29T04:13:30.206Z,18.80
2018-06-29T04:15:59.156Z,18.80
2018-06-29T04:18:28.097Z,18.80
2018-06-29T04:20:57.033Z,18.80
2018-06-29T04:23:26.143Z,19.00
2018-06-29T04:25:55.153Z,19.00
2018-06-29T04:28:24.113Z,19.00
2018-06-29T04:30:53.085Z,19.00
2018-06-29T04:33:22.098Z,19.10
2018-06-29T04:35:51.061Z,19.10
2018-06-29T04:38:20.026Z,19.20
2018-06-29T04:40:49.007Z,19.20
2018-06-29T04:43:17.965Z,19.20
2018-06-29T04:45:46.876Z,19.30
2018-06-29T04:48:15.797Z,19.40
2018-06-29T04:50:44.682Z,19.50
2018-06-29T04:53:13.599Z,19.50
2018-06-29T04:55:44.317Z,19.60
2018-06-29T04:58:13.261Z,19.60
2018-06-29T05:00:42.185Z,19.70
2018-06-29T05:03:11.154Z,19.80
2018-06-29T05:05:40.070Z,19.80
2018-06-29T05:08:09.007Z,20.00
2018-06-29T05:10:37.918Z,20.00
2018-06-29T05:15:35.729Z,20.00
2018-06-29T05:18:04.885Z,20.00
2018-06-29T05:20:33.849Z,20.00
2018-06-29T05:23:02.753Z,20.10
2018-06-29T05:25:31.649Z,20.20
2018-06-29T05:28:00.547Z,20.20
2018-06-29T05:30:29.457Z,20.20
2018-06-29T05:32:58.344Z,20.20
2018-06-29T05:35:27.324Z,20.20
2018-06-29T05:37:56.244Z,20.20
2018-06-29T05:40:25.242Z,20.20
2018-06-29T05:42:54.160Z,20.30
2018-06-29T05:45:23.133Z,20.20
2018-06-29T05:47:58.529Z,20.20
2018-06-29T05:50:27.570Z,20.30
2018-06-29T05:52:56.477Z,20.40
2018-06-29T05:55:25.417Z,20.40
2018-06-29T05:57:54.336Z,20.50
2018-06-29T06:00:23.709Z,20.50
2018-06-29T06:02:52.637Z,20.60
2018-06-29T06:05:21.549Z,20.70
2018-06-29T06:07:50.453Z,20.80
2018-06-29T06:10:19.424Z,20.80
2018-06-29T06:12:48.330Z,20.90
2018-06-29T06:15:17.235Z,21.10
2018-06-29T06:17:46.214Z,21.40
2018-06-29T06:20:15.865Z,22.00
2018-06-29T06:22:44.781Z,22.60
2018-06-29T06:25:13.768Z,23.20
2018-06-29T06:27:42.713Z,23.60
2018-06-29T06:30:11.628Z,23.90
2018-06-29T06:32:40.573Z,24.20
2018-06-29T06:35:09.490Z,24.70
2018-06-29T06:37:38.405Z,25.00
2018-06-29T06:40:07.369Z,25.40
2018-06-29T06:42:36.289Z,25.70
2018-06-29T06:45:05.496Z,26.00
2018-06-29T06:47:34.410Z,26.40
2018-06-29T06:50:03.441Z,26.60
2018-06-29T06:52:32.413Z,26.80
2018-06-29T06:55:01.321Z,26.90
2018-06-29T06:57:30.237Z,27.20
2018-06-29T07:00:00.055Z,27.40
2018-06-29T07:04:57.493Z,27.80
2018-06-29T07:07:26.409Z,28.10
2018-06-29T07:09:55.772Z,28.20
2018-06-29T07:12:24.819Z,28.20
2018-06-29T07:15:00.028Z,28.20
2018-06-29T07:17:29.070Z,28.50
2018-06-29T07:19:58.022Z,28.70
2018-06-29T07:22:27.023Z,28.80
2018-06-29T07:24:55.962Z,29.00
2018-06-29T07:27:24.949Z,29.20
2018-06-29T07:29:53.904Z,29.40
2018-06-29T07:32:22.845Z,29.50
2018-06-29T07:34:51.775Z,29.60
2018-06-29T07:37:20.725Z,29.50
2018-06-29T07:39:49.717Z,29.30
2018-06-29T07:42:18.694Z,29.30
2018-06-29T07:44:47.630Z,29.10
2018-06-29T07:47:16.590Z,29.00
2018-06-29T07:49:45.512Z,29.00
2018-06-29T07:52:14.487Z,29.10
2018-06-29T07:54:43.429Z,29.00
2018-06-29T07:57:12.396Z,29.10
2018-06-29T07:59:41.356Z,29.00
2018-06-29T08:02:10.277Z,29.20
2018-06-29T08:04:39.208Z,29.30
2018-06-29T08:07:08.196Z,29.50
2018-06-29T08:09:37.115Z,29.60
2018-06-29T08:13:30.717Z,29.70
2018-06-29T08:15:59.660Z,29.50
2018-06-29T08:18:28.593Z,29.40
2018-06-29T08:20:57.569Z,29.40
2018-06-29T08:23:33.252Z,29.30
2018-06-29T08:26:13.716Z,29.30
2018-06-29T08:28:42.661Z,29.30
2018-06-29T08:31:11.837Z,29.40
2018-06-29T08:33:41.030Z,29.60
2018-06-29T08:36:10.169Z,29.60
2018-06-29T08:38:39.182Z,29.70
2018-06-29T08:41:08.199Z,29.80
2018-06-29T08:43:37.125Z,29.90
2018-06-29T08:46:06.304Z,29.90
2018-06-29T08:48:35.537Z,29.90
2018-06-29T08:53:31.676Z,30.00
2018-06-29T08:56:00.793Z,30.10
2018-06-29T08:58:29.742Z,29.90
2018-06-29T09:00:58.690Z,29.90
2018-06-29T09:03:27.638Z,30.00
2018-06-29T09:05:56.600Z,30.10
2018-06-29T09:08:25.570Z,30.20
2018-06-29T09:10:54.557Z,30.20
2018-06-29T09:13:23.506Z,30.20
2018-06-29T09:15:52.461Z,30.20
2018-06-29T09:18:21.393Z,30.20
2018-06-29T09:20:50.321Z,30.20
2018-06-29T09:23:19.313Z,30.40
2018-06-29T09:25:48.254Z,30.30
2018-06-29T09:30:47.476Z,30.50
2018-06-29T09:33:16.415Z,30.50
2018-06-29T09:35:45.445Z,30.50
2018-06-29T09:38:14.569Z,30.60
2018-06-29T09:40:48.786Z,30.70
2018-06-29T09:43:17.945Z,30.60
2018-06-29T09:45:46.884Z,30.60
2018-06-29T09:48:15.874Z,30.40
2018-06-29T09:50:44.902Z,30.50
2018-06-29T09:53:13.865Z,30.40
2018-06-29T09:55:42.858Z,30.50
2018-06-29T09:58:11.840Z,30.60
2018-06-29T10:00:40.835Z,30.90
2018-06-29T10:03:09.866Z,31.00
2018-06-29T10:05:39.017Z,31.10
2018-06-29T10:08:07.952Z,31.20
2018-06-29T10:10:37.029Z,31.40
2018-06-29T10:13:06.038Z,31.60
2018-06-29T10:15:34.978Z,31.80
2018-06-29T10:18:03.993Z,31.90
2018-06-29T10:20:32.981Z,32.10
2018-06-29T10:23:01.936Z,32.10
2018-06-29T10:25:31.138Z,32.10
2018-06-29T10:28:00.151Z,32.10
2018-06-29T10:32:57.726Z,32.10
2018-06-29T10:35:26.715Z,32.20
2018-06-29T10:37:55.734Z,32.40
2018-06-29T10:40:24.709Z,32.60
2018-06-29T10:42:53.686Z,32.80
2018-06-29T10:45:22.658Z,32.90
2018-06-29T10:47:51.794Z,32.90
2018-06-29T10:50:20.745Z,33.00
2018-06-29T10:52:49.753Z,33.00
2018-06-29T10:55:18.777Z,33.10
2018-06-29T10:57:47.735Z,33.20
2018-06-29T11:00:16.797Z,33.20
2018-06-29T11:02:45.746Z,33.30
2018-06-29T11:05:14.681Z,33.50
2018-06-29T11:07:43.647Z,33.60
2018-06-29T11:10:12.693Z,33.70
2018-06-29T11:12:42.067Z,33.60
2018-06-29T11:15:11.089Z,33.50
2018-06-29T11:17:40.225Z,33.40
2018-06-29T11:20:09.214Z,33.50
2018-06-29T11:22:38.191Z,33.60
2018-06-29T11:25:07.455Z,33.70
2018-06-29T11:27:36.414Z,33.80
2018-06-29T11:30:05.442Z,33.90
2018-06-29T11:32:34.392Z,33.90
2018-06-29T11:35:03.465Z,33.70
2018-06-29T11:37:32.414Z,33.70
2018-06-29T11:40:01.402Z,33.80
2018-06-29T11:42:30.345Z,33.90
2018-06-29T11:44:59.353Z,33.90
2018-06-29T11:47:28.293Z,34.10
2018-06-29T11:49:57.238Z,34.20
2018-06-29T11:52:26.222Z,34.20
2018-06-29T11:57:23.897Z,34.10
2018-06-29T11:59:52.830Z,34.00
2018-06-29T12:02:21.780Z,33.70
2018-06-29T12:04:50.733Z,33.50
2018-06-29T12:07:19.747Z,33.30
2018-06-29T12:09:48.750Z,33.20
2018-06-29T12:12:17.686Z,33.00
2018-06-29T12:14:46.701Z,32.80
2018-06-29T12:17:15.657Z,32.50
2018-06-29T12:19:44.649Z,32.40
2018-06-29T12:22:13.587Z,32.40
2018-06-29T12:24:42.553Z,32.60
2018-06-29T12:27:11.482Z,32.80
2018-06-29T12:29:40.442Z,33.10
2018-06-29T12:32:09.389Z,33.20
2018-06-29T12:34:38.352Z,33.30
2018-06-29T12:37:07.322Z,33.30
2018-06-29T12:39:37.095Z,33.50
2018-06-29T12:42:06.585Z,33.60
2018-06-29T12:44:36.014Z,33.60
2018-06-29T12:47:05.074Z,33.70
2018-06-29T12:49:34.002Z,33.70
2018-06-29T12:52:03.018Z,33.60
2018-06-29T12:54:31.956Z,33.60
2018-06-29T12:59:29.472Z,33.70
2018-06-29T13:01:58.501Z,33.60
2018-06-29T13:04:27.432Z,33.60
2018-06-29T13:06:56.415Z,33.60
2018-06-29T13:09:25.339Z,33.70
2018-06-29T13:11:54.319Z,33.60
2018-06-29T13:14:23.293Z,33.30
2018-06-29T13:16:52.853Z,33.00
2018-06-29T13:20:46.073Z,32.70
2018-06-29T13:23:14.993Z,32.60
2018-06-29T13:25:43.906Z,32.50
2018-06-29T13:28:12.821Z,32.50
2018-06-29T13:30:41.756Z,32.60
2018-06-29T13:33:10.737Z,32.60
2018-06-29T13:35:39.819Z,32.70
2018-06-29T13:38:08.871Z,32.70
2018-06-29T13:40:38.026Z,32.80
2018-06-29T13:43:06.994Z,32.80
2018-06-29T13:45:35.929Z,32.90
2018-06-29T13:48:04.920Z,33.00
2018-06-29T13:50:33.982Z,33.00
2018-06-29T13:53:03.637Z,32.90
2018-06-29T13:55:33.121Z,32.80
2018-06-29T13:58:02.573Z,32.80
2018-06-29T14:00:31.736Z,32.80
2018-06-29T14:03:00.665Z,32.80
2018-06-29T14:05:29.605Z,32.90
2018-06-29T14:07:58.521Z,32.80
2018-06-29T14:10:27.466Z,32.80
2018-06-29T14:12:56.369Z,32.70
2018-06-29T14:15:25.397Z,32.60
2018-06-29T14:17:54.342Z,32.60
2018-06-29T14:20:23.276Z,32.70
2018-06-29T14:22:52.209Z,32.60
2018-06-29T14:25:21.129Z,32.60
2018-06-29T14:27:50.238Z,32.60
2018-06-29T14:30:19.178Z,32.60
2018-06-29T14:32:48.298Z,32.70
2018-06-29T14:35:17.266Z,32.70
2018-06-29T14:37:46.190Z,32.60
2018-06-29T14:40:15.210Z,32.60
2018-06-29T14:42:44.142Z,32.60
2018-06-29T14:45:13.057Z,32.60
2018-06-29T14:47:42.677Z,32.50
2018-06-29T14:50:11.619Z,32.50
2018-06-29T14:52:41.201Z,32.40
2018-06-29T14:55:10.179Z,32.40
2018-06-29T14:57:39.122Z,32.40
2018-06-29T15:00:09.822Z,32.30
2018-06-29T15:02:39.121Z,32.20
2018-06-29T15:05:08.459Z,32.20
2018-06-29T15:07:38.129Z,32.10
2018-06-29T15:10:07.454Z,32.00
2018-06-29T15:12:36.438Z,31.90
2018-06-29T15:15:05.439Z,31.90
2018-06-29T15:17:35.256Z,31.80
2018-06-29T15:20:05.953Z,31.80
2018-06-29T15:22:35.565Z,31.80
2018-06-29T15:25:04.948Z,31.80
2018-06-29T15:27:33.982Z,31.70
2018-06-29T15:30:03.090Z,31.70
2018-06-29T15:32:32.076Z,31.60
2018-06-29T15:35:01.101Z,31.50
2018-06-29T15:37:30.437Z,31.40
2018-06-29T15:39:59.411Z,31.30
2018-06-29T15:42:28.340Z,30.80
2018-06-29T15:44:57.298Z,31.10
2018-06-29T15:47:26.246Z,31.10
2018-06-29T15:49:55.208Z,31.00
2018-06-29T15:52:24.175Z,30.90
2018-06-29T15:54:53.550Z,30.90
2018-06-29T15:57:22.572Z,30.90
2018-06-29T15:59:51.833Z,30.80
2018-06-29T16:02:20.965Z,30.80
2018-06-29T16:04:51.649Z,30.70
2018-06-29T16:07:20.637Z,30.70
2018-06-29T16:09:49.690Z,30.70
2018-06-29T16:12:18.809Z,30.60
2018-06-29T16:17:16.645Z,30.50
2018-06-29T16:19:45.581Z,30.40
2018-06-29T16:22:15.221Z,30.40
2018-06-29T16:24:44.157Z,30.30
2018-06-29T16:27:13.048Z,30.30
2018-06-29T16:29:43.361Z,30.30
2018-06-29T16:32:12.320Z,30.20
2018-06-29T16:34:41.294Z,30.10
2018-06-29T16:37:11.124Z,30.10
2018-06-29T16:39:40.033Z,30.00
2018-06-29T16:42:09.173Z,29.90
2018-06-29T16:44:38.112Z,29.90
2018-06-29T16:47:09.524Z,29.90
2018-06-29T16:49:39.401Z,29.90
2018-06-29T16:52:08.439Z,29.80
2018-06-29T16:54:37.873Z,29.80
2018-06-29T16:57:07.069Z,29.80
2018-06-29T16:59:35.993Z,29.80
2018-06-29T17:02:05.612Z,29.70
2018-06-29T17:04:34.506Z,29.60
2018-06-29T17:07:03.517Z,29.60
2018-06-29T17:09:32.453Z,29.50
2018-06-29T17:12:01.399Z,29.40
2018-06-29T17:14:30.285Z,29.40
2018-06-29T17:16:59.498Z,29.40
2018-06-29T17:19:28.461Z,29.30
2018-06-29T17:21:57.726Z,29.30
2018-06-29T17:24:26.850Z,29.20
2018-06-29T17:26:55.844Z,29.20
2018-06-29T17:29:24.831Z,29.20
2018-06-29T17:31:53.808Z,29.10
2018-06-29T17:34:22.831Z,29.00
2018-06-29T17:36:51.705Z,29.00
2018-06-29T17:39:20.609Z,28.90
2018-06-29T17:41:49.713Z,28.90
2018-06-29T17:44:18.613Z,28.80
2018-06-29T17:46:47.507Z,28.70
2018-06-29T17:49:16.466Z,28.70
2018-06-29T17:51:45.385Z,28.70
2018-06-29T17:54:14.364Z,28.60
2018-06-29T17:56:43.289Z,28.50
2018-06-29T17:59:12.192Z,28.50
2018-06-29T18:01:41.129Z,28.50
2018-06-29T18:04:10.039Z,28.40
2018-06-29T18:06:38.929Z,28.40
2018-06-29T18:09:09.653Z,28.30
2018-06-29T18:11:38.602Z,28.20
2018-06-29T18:14:07.682Z,28.10
2018-06-29T18:16:36.602Z,28.00
2018-06-29T18:19:05.633Z,28.00
2018-06-29T18:21:34.525Z,27.90
2018-06-29T18:24:03.505Z,27.90
2018-06-29T18:26:32.441Z,27.80
2018-06-29T18:29:01.339Z,27.80
2018-06-29T18:31:30.230Z,27.70
2018-06-29T18:33:59.157Z,27.60
2018-06-29T18:36:28.066Z,27.60
2018-06-29T18:38:57.000Z,27.50
2018-06-29T18:41:25.897Z,27.50
2018-06-29T18:43:54.826Z,27.40
2018-06-29T18:46:23.789Z,27.30
2018-06-29T18:48:52.697Z,27.20
2018-06-29T18:51:21.601Z,27.10
2018-06-29T18:53:50.520Z,27.10
2018-06-29T18:56:21.317Z,26.90
2018-06-29T18:58:50.467Z,26.90
2018-06-29T19:01:19.544Z,26.80
2018-06-29T19:03:48.565Z,26.80
2018-06-29T19:06:19.553Z,26.80
2018-06-29T19:08:48.642Z,26.70
2018-06-29T19:11:17.556Z,26.60
2018-06-29T19:13:46.488Z,26.60
2018-06-29T19:16:15.373Z,26.50
2018-06-29T19:18:44.370Z,26.40
2018-06-29T19:21:14.696Z,26.30
2018-06-29T19:23:45.169Z,26.20
2018-06-29T19:26:14.269Z,26.10
2018-06-29T19:28:45.221Z,26.00
2018-06-29T19:31:14.349Z,25.90
2018-06-29T19:33:43.285Z,25.70
2018-06-29T19:36:12.193Z,25.60
2018-06-29T19:38:41.178Z,25.50
2018-06-29T19:41:10.067Z,25.40
2018-06-29T19:43:38.978Z,25.40
2018-06-29T19:46:08.010Z,25.20
2018-06-29T19:48:36.912Z,25.20
2018-06-29T19:53:34.557Z,24.90
2018-06-29T19:56:03.597Z,24.80
2018-06-29T19:58:32.565Z,24.80
2018-06-29T20:01:01.474Z,24.70
2018-06-29T20:03:30.419Z,24.60
2018-06-29T20:05:59.494Z,24.50
2018-06-29T20:08:28.404Z,24.30
2018-06-29T20:10:57.350Z,24.20
2018-06-29T20:13:26.313Z,24.10
2018-06-29T20:15:55.258Z,24.00
2018-06-29T20:18:24.165Z,24.00
2018-06-29T20:20:53.089Z,23.80
2018-06-29T20:28:00.697Z,23.50
2018-06-29T20:30:29.861Z,23.30
2018-06-29T20:32:58.806Z,23.30
2018-06-29T20:35:27.721Z,23.20
2018-06-29T20:37:56.697Z,23.10
2018-06-29T20:40:25.725Z,23.00
2018-06-29T20:42:55.979Z,22.90
2018-06-29T20:45:24.913Z,22.90
2018-06-29T20:47:53.894Z,22.80
2018-06-29T20:50:23.427Z,22.60
2018-06-29T20:52:52.463Z,22.50
2018-06-29T20:55:21.372Z,22.40
2018-06-29T20:57:50.273Z,22.30
2018-06-29T21:00:19.181Z,22.40
2018-06-29T21:02:48.622Z,22.50
2018-06-29T21:05:17.585Z,22.60
2018-06-29T21:07:46.549Z,22.50
2018-06-29T21:12:44.462Z,22.50
2018-06-29T21:15:14.407Z,22.40
2018-06-29T21:17:43.346Z,22.30
2018-06-29T21:20:12.787Z,22.20
2018-06-29T21:22:42.249Z,22.30
2018-06-29T21:25:12.188Z,22.20
2018-06-29T21:27:41.294Z,22.10
2018-06-29T21:30:10.333Z,22.20
2018-06-29T21:32:39.354Z,22.20
2018-06-29T21:35:08.898Z,22.10
2018-06-29T21:37:40.529Z,22.10
2018-06-29T21:40:09.515Z,22.10
2018-06-29T21:42:38.696Z,22.00
2018-06-29T21:45:07.775Z,21.90
2018-06-29T21:47:37.668Z,21.80
2018-06-29T21:50:07.245Z,21.80
2018-06-29T21:52:36.239Z,21.70
2018-06-29T21:55:05.854Z,21.60
2018-06-29T21:57:34.829Z,21.60
2018-06-29T22:00:05.413Z,21.60
2018-06-29T22:02:34.402Z,21.60
2018-06-29T22:05:03.993Z,21.60
2018-06-29T22:07:32.925Z,21.50
2018-06-29T22:10:01.973Z,21.40
2018-06-29T22:12:30.937Z,21.30
2018-06-29T22:14:59.865Z,21.20
2018-06-29T22:17:29.066Z,21.00
2018-06-29T22:19:58.003Z,20.90
2018-06-29T22:22:27.045Z,20.90
2018-06-29T22:24:56.122Z,20.80
2018-06-29T22:27:25.126Z,20.70
2018-06-29T22:29:54.128Z,20.60
2018-06-29T22:32:23.226Z,20.60
2018-06-29T22:34:52.165Z,20.60
2018-06-29T22:37:21.094Z,20.50
2018-06-29T22:39:50.041Z,20.40
2018-06-29T22:44:47.514Z,20.50
2018-06-29T22:47:16.502Z,20.50
2018-06-29T22:49:45.501Z,20.50
2018-06-29T22:52:14.661Z,20.40
2018-06-29T22:54:43.841Z,20.40
2018-06-29T22:57:12.857Z,20.20
2018-06-29T22:59:41.832Z,20.10
2018-06-29T23:02:10.797Z,20.10
2018-06-29T23:04:39.789Z,20.00
2018-06-29T23:07:08.721Z,20.00
2018-06-29T23:12:06.235Z,19.90
2018-06-29T23:14:35.254Z,19.90
2018-06-29T23:17:04.301Z,19.90
2018-06-29T23:19:33.263Z,19.90
2018-06-29T23:22:02.238Z,20.00
2018-06-29T23:24:31.246Z,19.90
2018-06-29T23:27:00.199Z,19.90
2018-06-29T23:29:29.133Z,19.70
2018-06-29T23:31:58.097Z,19.60
2018-06-29T23:34:27.226Z,19.50
2018-06-29T23:36:56.221Z,19.50
2018-06-29T23:39:25.242Z,19.30
2018-06-29T23:41:54.177Z,19.30
2018-06-29T23:44:23.184Z,19.20
2018-06-29T23:46:52.181Z,19.20
2018-06-29T23:49:21.118Z,19.20
2018-06-29T23:51:50.069Z,19.10
2018-06-29T23:54:19.068Z,19.10
2018-06-29T23:56:48.053Z,19.10
2018-06-29T23:59:16.988Z,19.20
